sensor_id;sensor_type;location;lat;lon;timestamp;P1;P2;P0
52000;PMS5003;73339;50.924;11.598;2024-03-08T00:02:11;14;14;
52000;PMS5003;73339;50.924;11.598;2024-03-08T00:04:41;15;15;
52000;PMS5003;73339;50.924;11.598;2024-03-08T00:07:11;14;14;
52000;PMS5003;73339;50.924;11.598;2024-03-08T00:09:42;17;17;
52000;PMS5003;73339;50.924;11.598;2024-03-08T00:12:13;17;16;
52000;PMS5003;73339;50.924;11.598;2024-03-08T00:14:43;16;15;
52000;PMS5003;73339;50.924;11.598;2024-03-08T00:17:13;18;17;
52000;PMS5003;73339;50.924;11.598;2024-03-08T00:19:44;19;17;
52000;PMS5003;73339;50.924;11.598;2024-03-08T00:22:14;18;18;
52000;PMS5003;73339;50.924;11.598;2024-03-08T00:24:45;16;15;
52000;PMS5003;73339;50.924;11.598;2024-03-08T00:27:16;17;17;
52000;PMS5003;73339;50.924;11.598;2024-03-08T00:29:46;14;14;
52000;PMS5003;73339;50.924;11.598;2024-03-08T00:32:16;15;15;
52000;PMS5003;73339;50.924;11.598;2024-03-08T00:34:47;19;16;
52000;PMS5003;73339;50.924;11.598;2024-03-08T00:37:17;16;16;
52000;PMS5003;73339;50.924;11.598;2024-03-08T00:39:47;16;16;
52000;PMS5003;73339;50.924;11.598;2024-03-08T00:42:18;15;15;
52000;PMS5003;73339;50.924;11.598;2024-03-08T00:44:48;16;13;
52000;PMS5003;73339;50.924;11.598;2024-03-08T00:47:19;18;15;
52000;PMS5003;73339;50.924;11.598;2024-03-08T00:49:49;20;19;
52000;PMS5003;73339;50.924;11.598;2024-03-08T00:52:20;16;16;
52000;PMS5003;73339;50.924;11.598;2024-03-08T00:54:50;13;13;
52000;PMS5003;73339;50.924;11.598;2024-03-08T00:57:20;16;16;
52000;PMS5003;73339;50.924;11.598;2024-03-08T00:59:51;13;13;
52000;PMS5003;73339;50.924;11.598;2024-03-08T01:02:22;14;14;
52000;PMS5003;73339;50.924;11.598;2024-03-08T01:04:52;12;12;
52000;PMS5003;73339;50.924;11.598;2024-03-08T01:07:22;15;15;
52000;PMS5003;73339;50.924;11.598;2024-03-08T01:09:53;15;15;
52000;PMS5003;73339;50.924;11.598;2024-03-08T01:12:23;14;14;
52000;PMS5003;73339;50.924;11.598;2024-03-08T01:14:54;17;15;
52000;PMS5003;73339;50.924;11.598;2024-03-08T01:17:24;17;16;
52000;PMS5003;73339;50.924;11.598;2024-03-08T01:19:55;12;12;
52000;PMS5003;73339;50.924;11.598;2024-03-08T01:22:25;14;12;
52000;PMS5003;73339;50.924;11.598;2024-03-08T01:24:56;15;14;
52000;PMS5003;73339;50.924;11.598;2024-03-08T01:27:26;14;14;
52000;PMS5003;73339;50.924;11.598;2024-03-08T01:29:56;13;13;
52000;PMS5003;73339;50.924;11.598;2024-03-08T01:32:26;18;18;
52000;PMS5003;73339;50.924;11.598;2024-03-08T01:34:57;16;16;
52000;PMS5003;73339;50.924;11.598;2024-03-08T01:37:27;16;14;
52000;PMS5003;73339;50.924;11.598;2024-03-08T01:39:58;12;12;
52000;PMS5003;73339;50.924;11.598;2024-03-08T01:42:28;17;16;
52000;PMS5003;73339;50.924;11.598;2024-03-08T01:44:59;16;15;
52000;PMS5003;73339;50.924;11.598;2024-03-08T01:47:29;17;14;
52000;PMS5003;73339;50.924;11.598;2024-03-08T01:50:00;13;12;
52000;PMS5003;73339;50.924;11.598;2024-03-08T01:52:30;18;18;
52000;PMS5003;73339;50.924;11.598;2024-03-08T01:55:01;16;15;
52000;PMS5003;73339;50.924;11.598;2024-03-08T01:57:31;13;12;
52000;PMS5003;73339;50.924;11.598;2024-03-08T02:00:01;13;13;
52000;PMS5003;73339;50.924;11.598;2024-03-08T02:02:32;17;14;
52000;PMS5003;73339;50.924;11.598;2024-03-08T02:05:02;15;15;
52000;PMS5003;73339;50.924;11.598;2024-03-08T02:07:32;12;12;
52000;PMS5003;73339;50.924;11.598;2024-03-08T02:10:03;15;14;
52000;PMS5003;73339;50.924;11.598;2024-03-08T02:12:33;17;16;
52000;PMS5003;73339;50.924;11.598;2024-03-08T02:15:04;18;17;
52000;PMS5003;73339;50.924;11.598;2024-03-08T02:17:34;13;13;
52000;PMS5003;73339;50.924;11.598;2024-03-08T02:20:05;12;12;
52000;PMS5003;73339;50.924;11.598;2024-03-08T02:22:35;12;12;
52000;PMS5003;73339;50.924;11.598;2024-03-08T02:25:05;15;14;
52000;PMS5003;73339;50.924;11.598;2024-03-08T02:27:35;15;14;
52000;PMS5003;73339;50.924;11.598;2024-03-08T02:30:06;12;12;
52000;PMS5003;73339;50.924;11.598;2024-03-08T02:32:36;18;16;
52000;PMS5003;73339;50.924;11.598;2024-03-08T02:35:07;17;17;
52000;PMS5003;73339;50.924;11.598;2024-03-08T02:37:38;14;12;
52000;PMS5003;73339;50.924;11.598;2024-03-08T02:40:09;12;12;
52000;PMS5003;73339;50.924;11.598;2024-03-08T02:42:39;18;16;
52000;PMS5003;73339;50.924;11.598;2024-03-08T02:45:09;16;14;
52000;PMS5003;73339;50.924;11.598;2024-03-08T02:47:39;13;13;
52000;PMS5003;73339;50.924;11.598;2024-03-08T02:50:09;14;14;
52000;PMS5003;73339;50.924;11.598;2024-03-08T02:52:40;15;13;
52000;PMS5003;73339;50.924;11.598;2024-03-08T02:55:10;13;13;
52000;PMS5003;73339;50.924;11.598;2024-03-08T02:57:40;14;13;
52000;PMS5003;73339;50.924;11.598;2024-03-08T03:00:11;17;17;
52000;PMS5003;73339;50.924;11.598;2024-03-08T03:02:41;12;12;
52000;PMS5003;73339;50.924;11.598;2024-03-08T03:05:11;14;11;
52000;PMS5003;73339;50.924;11.598;2024-03-08T03:07:42;16;15;
52000;PMS5003;73339;50.924;11.598;2024-03-08T03:10:12;12;12;
52000;PMS5003;73339;50.924;11.598;2024-03-08T03:12:43;15;14;
52000;PMS5003;73339;50.924;11.598;2024-03-08T03:15:13;16;15;
52000;PMS5003;73339;50.924;11.598;2024-03-08T03:17:45;12;12;
52000;PMS5003;73339;50.924;11.598;2024-03-08T03:20:13;14;14;
52000;PMS5003;73339;50.924;11.598;2024-03-08T03:22:44;17;15;
52000;PMS5003;73339;50.924;11.598;2024-03-08T03:25:14;14;12;
52000;PMS5003;73339;50.924;11.598;2024-03-08T03:27:45;18;15;
52000;PMS5003;73339;50.924;11.598;2024-03-08T03:30:15;15;15;
52000;PMS5003;73339;50.924;11.598;2024-03-08T03:32:46;14;13;
52000;PMS5003;73339;50.924;11.598;2024-03-08T03:35:16;14;14;
52000;PMS5003;73339;50.924;11.598;2024-03-08T03:37:46;14;14;
52000;PMS5003;73339;50.924;11.598;2024-03-08T03:40:17;16;13;
52000;PMS5003;73339;50.924;11.598;2024-03-08T03:42:47;16;16;
52000;PMS5003;73339;50.924;11.598;2024-03-08T03:45:18;15;14;
52000;PMS5003;73339;50.924;11.598;2024-03-08T03:47:48;14;13;
52000;PMS5003;73339;50.924;11.598;2024-03-08T03:50:18;14;14;
52000;PMS5003;73339;50.924;11.598;2024-03-08T03:52:49;15;13;
52000;PMS5003;73339;50.924;11.598;2024-03-08T03:55:19;13;13;
52000;PMS5003;73339;50.924;11.598;2024-03-08T03:57:50;15;12;
52000;PMS5003;73339;50.924;11.598;2024-03-08T04:00:20;13;13;
52000;PMS5003;73339;50.924;11.598;2024-03-08T04:02:51;14;14;
52000;PMS5003;73339;50.924;11.598;2024-03-08T04:05:21;14;14;
52000;PMS5003;73339;50.924;11.598;2024-03-08T04:07:51;13;13;
52000;PMS5003;73339;50.924;11.598;2024-03-08T04:10:22;13;13;
52000;PMS5003;73339;50.924;11.598;2024-03-08T04:12:52;14;11;
52000;PMS5003;73339;50.924;11.598;2024-03-08T04:15:23;15;15;
52000;PMS5003;73339;50.924;11.598;2024-03-08T04:17:53;16;14;
52000;PMS5003;73339;50.924;11.598;2024-03-08T04:20:24;13;12;
52000;PMS5003;73339;50.924;11.598;2024-03-08T04:22:54;13;12;
52000;PMS5003;73339;50.924;11.598;2024-03-08T04:25:25;13;13;
52000;PMS5003;73339;50.924;11.598;2024-03-08T04:27:55;13;13;
52000;PMS5003;73339;50.924;11.598;2024-03-08T04:30:25;18;16;
52000;PMS5003;73339;50.924;11.598;2024-03-08T04:32:56;16;13;
52000;PMS5003;73339;50.924;11.598;2024-03-08T04:35:26;13;11;
52000;PMS5003;73339;50.924;11.598;2024-03-08T04:37:57;13;13;
52000;PMS5003;73339;50.924;11.598;2024-03-08T04:40:27;16;14;
52000;PMS5003;73339;50.924;11.598;2024-03-08T04:42:58;14;12;
52000;PMS5003;73339;50.924;11.598;2024-03-08T04:45:28;14;13;
52000;PMS5003;73339;50.924;11.598;2024-03-08T04:47:59;12;12;
52000;PMS5003;73339;50.924;11.598;2024-03-08T04:50:29;13;13;
52000;PMS5003;73339;50.924;11.598;2024-03-08T04:52:59;18;15;
52000;PMS5003;73339;50.924;11.598;2024-03-08T04:55:30;15;15;
52000;PMS5003;73339;50.924;11.598;2024-03-08T04:58:00;12;12;
52000;PMS5003;73339;50.924;11.598;2024-03-08T05:00:31;15;14;
52000;PMS5003;73339;50.924;11.598;2024-03-08T05:03:01;15;15;
52000;PMS5003;73339;50.924;11.598;2024-03-08T05:05:31;15;14;
52000;PMS5003;73339;50.924;11.598;2024-03-08T05:08:01;17;16;
52000;PMS5003;73339;50.924;11.598;2024-03-08T05:10:32;12;12;
52000;PMS5003;73339;50.924;11.598;2024-03-08T05:13:02;13;13;
52000;PMS5003;73339;50.924;11.598;2024-03-08T05:15:33;14;13;
52000;PMS5003;73339;50.924;11.598;2024-03-08T05:18:04;11;10;
52000;PMS5003;73339;50.924;11.598;2024-03-08T05:20:34;13;13;
52000;PMS5003;73339;50.924;11.598;2024-03-08T05:23:05;11;11;
52000;PMS5003;73339;50.924;11.598;2024-03-08T05:25:35;13;11;
52000;PMS5003;73339;50.924;11.598;2024-03-08T05:28:05;16;12;
52000;PMS5003;73339;50.924;11.598;2024-03-08T05:30:37;13;13;
52000;PMS5003;73339;50.924;11.598;2024-03-08T05:33:06;18;16;
52000;PMS5003;73339;50.924;11.598;2024-03-08T05:35:36;14;14;
52000;PMS5003;73339;50.924;11.598;2024-03-08T05:38:07;13;13;
52000;PMS5003;73339;50.924;11.598;2024-03-08T05:40:37;14;14;
52000;PMS5003;73339;50.924;11.598;2024-03-08T05:43:07;14;11;
52000;PMS5003;73339;50.924;11.598;2024-03-08T05:45:38;14;13;
52000;PMS5003;73339;50.924;11.598;2024-03-08T05:48:08;15;13;
52000;PMS5003;73339;50.924;11.598;2024-03-08T05:50:39;18;14;
52000;PMS5003;73339;50.924;11.598;2024-03-08T05:53:09;15;14;
52000;PMS5003;73339;50.924;11.598;2024-03-08T05:55:40;17;16;
52000;PMS5003;73339;50.924;11.598;2024-03-08T05:58:11;14;12;
52000;PMS5003;73339;50.924;11.598;2024-03-08T06:00:41;16;13;
52000;PMS5003;73339;50.924;11.598;2024-03-08T06:03:12;14;12;
52000;PMS5003;73339;50.924;11.598;2024-03-08T06:05:42;13;12;
52000;PMS5003;73339;50.924;11.598;2024-03-08T06:08:13;11;11;
52000;PMS5003;73339;50.924;11.598;2024-03-08T06:10:43;18;15;
52000;PMS5003;73339;50.924;11.598;2024-03-08T06:13:14;14;13;
52000;PMS5003;73339;50.924;11.598;2024-03-08T06:15:44;15;13;
52000;PMS5003;73339;50.924;11.598;2024-03-08T06:18:15;14;13;
52000;PMS5003;73339;50.924;11.598;2024-03-08T06:20:45;14;14;
52000;PMS5003;73339;50.924;11.598;2024-03-08T06:23:16;13;13;
52000;PMS5003;73339;50.924;11.598;2024-03-08T06:25:46;14;13;
52000;PMS5003;73339;50.924;11.598;2024-03-08T06:28:16;13;12;
52000;PMS5003;73339;50.924;11.598;2024-03-08T06:30:47;12;12;
52000;PMS5003;73339;50.924;11.598;2024-03-08T06:33:18;16;12;
52000;PMS5003;73339;50.924;11.598;2024-03-08T06:35:48;13;13;
52000;PMS5003;73339;50.924;11.598;2024-03-08T06:38:19;13;13;
52000;PMS5003;73339;50.924;11.598;2024-03-08T06:40:49;12;12;
52000;PMS5003;73339;50.924;11.598;2024-03-08T06:43:20;14;14;
52000;PMS5003;73339;50.924;11.598;2024-03-08T06:45:50;13;12;
52000;PMS5003;73339;50.924;11.598;2024-03-08T06:48:20;15;15;
52000;PMS5003;73339;50.924;11.598;2024-03-08T06:50:51;14;14;
52000;PMS5003;73339;50.924;11.598;2024-03-08T06:53:21;14;13;
52000;PMS5003;73339;50.924;11.598;2024-03-08T06:55:52;15;14;
52000;PMS5003;73339;50.924;11.598;2024-03-08T06:58:23;14;11;
52000;PMS5003;73339;50.924;11.598;2024-03-08T07:00:53;12;11;
52000;PMS5003;73339;50.924;11.598;2024-03-08T07:03:23;15;13;
52000;PMS5003;73339;50.924;11.598;2024-03-08T07:05:54;13;11;
52000;PMS5003;73339;50.924;11.598;2024-03-08T07:08:24;12;10;
52000;PMS5003;73339;50.924;11.598;2024-03-08T07:10:55;12;12;
52000;PMS5003;73339;50.924;11.598;2024-03-08T07:13:25;13;12;
52000;PMS5003;73339;50.924;11.598;2024-03-08T07:15:55;15;13;
52000;PMS5003;73339;50.924;11.598;2024-03-08T07:18:26;15;14;
52000;PMS5003;73339;50.924;11.598;2024-03-08T07:20:56;13;13;
52000;PMS5003;73339;50.924;11.598;2024-03-08T07:23:26;16;13;
52000;PMS5003;73339;50.924;11.598;2024-03-08T07:25:56;16;16;
52000;PMS5003;73339;50.924;11.598;2024-03-08T07:28:27;16;15;
52000;PMS5003;73339;50.924;11.598;2024-03-08T07:30:57;16;16;
52000;PMS5003;73339;50.924;11.598;2024-03-08T07:33:28;18;18;
52000;PMS5003;73339;50.924;11.598;2024-03-08T07:35:58;24;22;
52000;PMS5003;73339;50.924;11.598;2024-03-08T07:38:28;21;21;
52000;PMS5003;73339;50.924;11.598;2024-03-08T07:40:58;25;23;
52000;PMS5003;73339;50.924;11.598;2024-03-08T07:43:29;19;19;
52000;PMS5003;73339;50.924;11.598;2024-03-08T07:45:59;20;19;
52000;PMS5003;73339;50.924;11.598;2024-03-08T07:48:29;18;18;
52000;PMS5003;73339;50.924;11.598;2024-03-08T07:51:00;25;20;
52000;PMS5003;73339;50.924;11.598;2024-03-08T07:53:31;20;20;
52000;PMS5003;73339;50.924;11.598;2024-03-08T07:56:01;19;18;
52000;PMS5003;73339;50.924;11.598;2024-03-08T07:58:31;18;18;
52000;PMS5003;73339;50.924;11.598;2024-03-08T08:01:02;18;18;
52000;PMS5003;73339;50.924;11.598;2024-03-08T08:03:32;24;21;
52000;PMS5003;73339;50.924;11.598;2024-03-08T08:06:02;23;18;
52000;PMS5003;73339;50.924;11.598;2024-03-08T08:08:32;20;20;
52000;PMS5003;73339;50.924;11.598;2024-03-08T08:11:03;20;19;
52000;PMS5003;73339;50.924;11.598;2024-03-08T08:13:33;20;20;
52000;PMS5003;73339;50.924;11.598;2024-03-08T08:16:03;18;17;
52000;PMS5003;73339;50.924;11.598;2024-03-08T08:18:34;20;18;
52000;PMS5003;73339;50.924;11.598;2024-03-08T08:21:04;21;19;
52000;PMS5003;73339;50.924;11.598;2024-03-08T08:23:35;23;21;
52000;PMS5003;73339;50.924;11.598;2024-03-08T08:26:05;21;19;
52000;PMS5003;73339;50.924;11.598;2024-03-08T08:28:36;21;20;
52000;PMS5003;73339;50.924;11.598;2024-03-08T08:31:06;20;18;
52000;PMS5003;73339;50.924;11.598;2024-03-08T08:33:37;22;19;
52000;PMS5003;73339;50.924;11.598;2024-03-08T08:36:07;19;18;
52000;PMS5003;73339;50.924;11.598;2024-03-08T08:38:38;24;22;
52000;PMS5003;73339;50.924;11.598;2024-03-08T08:41:09;20;19;
52000;PMS5003;73339;50.924;11.598;2024-03-08T08:43:38;23;22;
52000;PMS5003;73339;50.924;11.598;2024-03-08T08:46:09;23;20;
52000;PMS5003;73339;50.924;11.598;2024-03-08T08:48:39;20;20;
52000;PMS5003;73339;50.924;11.598;2024-03-08T08:51:09;24;21;
52000;PMS5003;73339;50.924;11.598;2024-03-08T08:53:39;24;23;
52000;PMS5003;73339;50.924;11.598;2024-03-08T08:56:10;21;20;
52000;PMS5003;73339;50.924;11.598;2024-03-08T08:58:40;19;18;
52000;PMS5003;73339;50.924;11.598;2024-03-08T09:01:11;24;21;
52000;PMS5003;73339;50.924;11.598;2024-03-08T09:03:41;21;19;
52000;PMS5003;73339;50.924;11.598;2024-03-08T09:06:12;22;20;
52000;PMS5003;73339;50.924;11.598;2024-03-08T09:08:43;24;20;
52000;PMS5003;73339;50.924;11.598;2024-03-08T09:11:13;22;17;
52000;PMS5003;73339;50.924;11.598;2024-03-08T09:13:44;22;19;
52000;PMS5003;73339;50.924;11.598;2024-03-08T09:16:14;18;17;
52000;PMS5003;73339;50.924;11.598;2024-03-08T09:18:44;21;21;
52000;PMS5003;73339;50.924;11.598;2024-03-08T09:21:14;19;19;
52000;PMS5003;73339;50.924;11.598;2024-03-08T09:23:44;19;18;
52000;PMS5003;73339;50.924;11.598;2024-03-08T09:26:15;22;18;
52000;PMS5003;73339;50.924;11.598;2024-03-08T09:28:46;21;20;
52000;PMS5003;73339;50.924;11.598;2024-03-08T09:31:16;21;20;
52000;PMS5003;73339;50.924;11.598;2024-03-08T09:33:46;19;18;
52000;PMS5003;73339;50.924;11.598;2024-03-08T09:36:17;22;20;
52000;PMS5003;73339;50.924;11.598;2024-03-08T09:38:47;22;20;
52000;PMS5003;73339;50.924;11.598;2024-03-08T09:41:17;20;18;
52000;PMS5003;73339;50.924;11.598;2024-03-08T09:43:48;20;18;
52000;PMS5003;73339;50.924;11.598;2024-03-08T09:46:19;17;16;
52000;PMS5003;73339;50.924;11.598;2024-03-08T09:48:49;21;17;
52000;PMS5003;73339;50.924;11.598;2024-03-08T09:51:20;22;18;
52000;PMS5003;73339;50.924;11.598;2024-03-08T09:53:49;18;16;
52000;PMS5003;73339;50.924;11.598;2024-03-08T09:56:20;19;18;
52000;PMS5003;73339;50.924;11.598;2024-03-08T09:58:50;17;17;
52000;PMS5003;73339;50.924;11.598;2024-03-08T10:01:21;17;16;
52000;PMS5003;73339;50.924;11.598;2024-03-08T10:03:52;16;14;
52000;PMS5003;73339;50.924;11.598;2024-03-08T10:06:22;17;16;
52000;PMS5003;73339;50.924;11.598;2024-03-08T10:08:52;15;15;
52000;PMS5003;73339;50.924;11.598;2024-03-08T10:11:22;20;18;
52000;PMS5003;73339;50.924;11.598;2024-03-08T10:13:53;17;17;
52000;PMS5003;73339;50.924;11.598;2024-03-08T10:16:23;18;18;
52000;PMS5003;73339;50.924;11.598;2024-03-08T10:18:53;16;16;
52000;PMS5003;73339;50.924;11.598;2024-03-08T10:21:23;19;18;
52000;PMS5003;73339;50.924;11.598;2024-03-08T10:23:55;22;22;
52000;PMS5003;73339;50.924;11.598;2024-03-08T10:26:25;19;16;
52000;PMS5003;73339;50.924;11.598;2024-03-08T10:28:55;19;18;
52000;PMS5003;73339;50.924;11.598;2024-03-08T10:31:26;17;17;
52000;PMS5003;73339;50.924;11.598;2024-03-08T10:33:57;20;18;
52000;PMS5003;73339;50.924;11.598;2024-03-08T10:36:27;21;20;
52000;PMS5003;73339;50.924;11.598;2024-03-08T10:38:58;19;18;
52000;PMS5003;73339;50.924;11.598;2024-03-08T10:41:29;16;16;
52000;PMS5003;73339;50.924;11.598;2024-03-08T10:44:05;19;18;
52000;PMS5003;73339;50.924;11.598;2024-03-08T10:46:30;22;15;
52000;PMS5003;73339;50.924;11.598;2024-03-08T10:49:00;17;15;
52000;PMS5003;73339;50.924;11.598;2024-03-08T10:51:30;17;16;
52000;PMS5003;73339;50.924;11.598;2024-03-08T10:54:01;19;16;
52000;PMS5003;73339;50.924;11.598;2024-03-08T10:56:31;17;17;
52000;PMS5003;73339;50.924;11.598;2024-03-08T10:59:01;17;17;
52000;PMS5003;73339;50.924;11.598;2024-03-08T11:01:31;16;16;
52000;PMS5003;73339;50.924;11.598;2024-03-08T11:04:04;18;17;
52000;PMS5003;73339;50.924;11.598;2024-03-08T11:09:02;18;17;
52000;PMS5003;73339;50.924;11.598;2024-03-08T11:11:32;20;18;
52000;PMS5003;73339;50.924;11.598;2024-03-08T11:14:03;20;19;
52000;PMS5003;73339;50.924;11.598;2024-03-08T11:16:36;16;16;
52000;PMS5003;73339;50.924;11.598;2024-03-08T11:19:05;18;18;
52000;PMS5003;73339;50.924;11.598;2024-03-08T11:21:33;17;14;
52000;PMS5003;73339;50.924;11.598;2024-03-08T11:24:06;18;15;
52000;PMS5003;73339;50.924;11.598;2024-03-08T11:26:34;18;15;
52000;PMS5003;73339;50.924;11.598;2024-03-08T11:31:35;17;15;
52000;PMS5003;73339;50.924;11.598;2024-03-08T11:34:07;14;13;
52000;PMS5003;73339;50.924;11.598;2024-03-08T11:36:35;19;18;
52000;PMS5003;73339;50.924;11.598;2024-03-08T11:39:06;20;20;
52000;PMS5003;73339;50.924;11.598;2024-03-08T11:41:36;19;19;
52000;PMS5003;73339;50.924;11.598;2024-03-08T11:44:07;22;22;
52000;PMS5003;73339;50.924;11.598;2024-03-08T11:46:37;22;19;
52000;PMS5003;73339;50.924;11.598;2024-03-08T11:49:08;17;17;
52000;PMS5003;73339;50.924;11.598;2024-03-08T11:51:38;18;17;
52000;PMS5003;73339;50.924;11.598;2024-03-08T11:54:10;20;19;
52000;PMS5003;73339;50.924;11.598;2024-03-08T11:56:39;17;16;
52000;PMS5003;73339;50.924;11.598;2024-03-08T11:59:10;20;17;
52000;PMS5003;73339;50.924;11.598;2024-03-08T12:01:40;20;17;
52000;PMS5003;73339;50.924;11.598;2024-03-08T12:04:11;17;16;
52000;PMS5003;73339;50.924;11.598;2024-03-08T12:06:41;17;17;
52000;PMS5003;73339;50.924;11.598;2024-03-08T12:09:11;18;16;
52000;PMS5003;73339;50.924;11.598;2024-03-08T12:11:41;17;15;
52000;PMS5003;73339;50.924;11.598;2024-03-08T12:14:12;19;18;
52000;PMS5003;73339;50.924;11.598;2024-03-08T12:16:42;22;19;
52000;PMS5003;73339;50.924;11.598;2024-03-08T12:19:12;28;25;
52000;PMS5003;73339;50.924;11.598;2024-03-08T12:21:43;17;15;
52000;PMS5003;73339;50.924;11.598;2024-03-08T12:24:14;20;18;
52000;PMS5003;73339;50.924;11.598;2024-03-08T12:26:44;15;15;
52000;PMS5003;73339;50.924;11.598;2024-03-08T12:29:15;17;16;
52000;PMS5003;73339;50.924;11.598;2024-03-08T12:31:45;18;15;
52000;PMS5003;73339;50.924;11.598;2024-03-08T12:34:15;19;16;
52000;PMS5003;73339;50.924;11.598;2024-03-08T12:36:46;20;17;
52000;PMS5003;73339;50.924;11.598;2024-03-08T12:39:16;21;19;
52000;PMS5003;73339;50.924;11.598;2024-03-08T12:41:46;18;18;
52000;PMS5003;73339;50.924;11.598;2024-03-08T12:44:17;21;18;
52000;PMS5003;73339;50.924;11.598;2024-03-08T12:46:48;19;19;
52000;PMS5003;73339;50.924;11.598;2024-03-08T12:49:18;19;19;
52000;PMS5003;73339;50.924;11.598;2024-03-08T12:51:49;24;22;
52000;PMS5003;73339;50.924;11.598;2024-03-08T12:54:20;18;15;
52000;PMS5003;73339;50.924;11.598;2024-03-08T12:56:50;19;15;
52000;PMS5003;73339;50.924;11.598;2024-03-08T12:59:20;20;19;
52000;PMS5003;73339;50.924;11.598;2024-03-08T13:01:50;17;16;
52000;PMS5003;73339;50.924;11.598;2024-03-08T13:04:21;21;19;
52000;PMS5003;73339;50.924;11.598;2024-03-08T13:06:51;18;18;
52000;PMS5003;73339;50.924;11.598;2024-03-08T13:09:22;19;17;
52000;PMS5003;73339;50.924;11.598;2024-03-08T13:11:52;20;20;
52000;PMS5003;73339;50.924;11.598;2024-03-08T13:14:23;17;16;
52000;PMS5003;73339;50.924;11.598;2024-03-08T13:16:53;18;18;
52000;PMS5003;73339;50.924;11.598;2024-03-08T13:19:24;26;21;
52000;PMS5003;73339;50.924;11.598;2024-03-08T13:21:54;22;17;
52000;PMS5003;73339;50.924;11.598;2024-03-08T13:24:24;19;18;
52000;PMS5003;73339;50.924;11.598;2024-03-08T13:26:55;19;16;
52000;PMS5003;73339;50.924;11.598;2024-03-08T13:29:25;17;16;
52000;PMS5003;73339;50.924;11.598;2024-03-08T13:31:55;25;21;
52000;PMS5003;73339;50.924;11.598;2024-03-08T13:34:26;20;17;
52000;PMS5003;73339;50.924;11.598;2024-03-08T13:36:56;20;19;
52000;PMS5003;73339;50.924;11.598;2024-03-08T13:39:26;18;18;
52000;PMS5003;73339;50.924;11.598;2024-03-08T13:41:56;20;19;
52000;PMS5003;73339;50.924;11.598;2024-03-08T13:44:27;23;20;
52000;PMS5003;73339;50.924;11.598;2024-03-08T13:46:57;18;16;
52000;PMS5003;73339;50.924;11.598;2024-03-08T13:49:28;19;17;
52000;PMS5003;73339;50.924;11.598;2024-03-08T13:51:58;16;16;
52000;PMS5003;73339;50.924;11.598;2024-03-08T13:54:29;19;18;
52000;PMS5003;73339;50.924;11.598;2024-03-08T13:56:59;16;16;
52000;PMS5003;73339;50.924;11.598;2024-03-08T13:59:29;21;18;
52000;PMS5003;73339;50.924;11.598;2024-03-08T14:02:00;19;16;
52000;PMS5003;73339;50.924;11.598;2024-03-08T14:04:30;19;18;
52000;PMS5003;73339;50.924;11.598;2024-03-08T14:07:00;17;16;
52000;PMS5003;73339;50.924;11.598;2024-03-08T14:09:31;18;15;
52000;PMS5003;73339;50.924;11.598;2024-03-08T14:12:01;21;20;
52000;PMS5003;73339;50.924;11.598;2024-03-08T14:14:32;17;17;
52000;PMS5003;73339;50.924;11.598;2024-03-08T14:17:02;22;19;
52000;PMS5003;73339;50.924;11.598;2024-03-08T14:19:32;20;18;
52000;PMS5003;73339;50.924;11.598;2024-03-08T14:22:03;26;22;
52000;PMS5003;73339;50.924;11.598;2024-03-08T14:24:33;20;17;
52000;PMS5003;73339;50.924;11.598;2024-03-08T14:27:03;19;16;
52000;PMS5003;73339;50.924;11.598;2024-03-08T14:29:33;17;17;
52000;PMS5003;73339;50.924;11.598;2024-03-08T14:32:04;21;18;
52000;PMS5003;73339;50.924;11.598;2024-03-08T14:34:34;23;22;
52000;PMS5003;73339;50.924;11.598;2024-03-08T14:37:04;21;18;
52000;PMS5003;73339;50.924;11.598;2024-03-08T14:39:34;18;18;
52000;PMS5003;73339;50.924;11.598;2024-03-08T14:42:04;20;18;
52000;PMS5003;73339;50.924;11.598;2024-03-08T14:44:34;17;17;
52000;PMS5003;73339;50.924;11.598;2024-03-08T14:47:05;20;19;
52000;PMS5003;73339;50.924;11.598;2024-03-08T14:49:36;21;18;
52000;PMS5003;73339;50.924;11.598;2024-03-08T14:52:07;19;19;
52000;PMS5003;73339;50.924;11.598;2024-03-08T14:54:37;18;18;
52000;PMS5003;73339;50.924;11.598;2024-03-08T14:57:07;17;17;
52000;PMS5003;73339;50.924;11.598;2024-03-08T14:59:37;21;17;
52000;PMS5003;73339;50.924;11.598;2024-03-08T15:02:08;20;19;
52000;PMS5003;73339;50.924;11.598;2024-03-08T15:04:38;19;18;
52000;PMS5003;73339;50.924;11.598;2024-03-08T15:07:09;16;14;
52000;PMS5003;73339;50.924;11.598;2024-03-08T15:09:39;16;15;
52000;PMS5003;73339;50.924;11.598;2024-03-08T15:12:10;20;17;
52000;PMS5003;73339;50.924;11.598;2024-03-08T15:14:40;17;17;
52000;PMS5003;73339;50.924;11.598;2024-03-08T15:17:10;17;17;
52000;PMS5003;73339;50.924;11.598;2024-03-08T15:19:41;17;15;
52000;PMS5003;73339;50.924;11.598;2024-03-08T15:22:12;16;16;
52000;PMS5003;73339;50.924;11.598;2024-03-08T15:24:42;15;15;
52000;PMS5003;73339;50.924;11.598;2024-03-08T15:27:12;22;21;
52000;PMS5003;73339;50.924;11.598;2024-03-08T15:29:43;18;16;
52000;PMS5003;73339;50.924;11.598;2024-03-08T15:32:13;16;15;
52000;PMS5003;73339;50.924;11.598;2024-03-08T15:34:44;17;15;
52000;PMS5003;73339;50.924;11.598;2024-03-08T15:37:15;16;15;
52000;PMS5003;73339;50.924;11.598;2024-03-08T15:39:45;21;18;
52000;PMS5003;73339;50.924;11.598;2024-03-08T15:42:16;22;18;
52000;PMS5003;73339;50.924;11.598;2024-03-08T15:44:47;16;15;
52000;PMS5003;73339;50.924;11.598;2024-03-08T15:47:17;19;17;
52000;PMS5003;73339;50.924;11.598;2024-03-08T15:49:48;18;16;
52000;PMS5003;73339;50.924;11.598;2024-03-08T15:52:18;17;16;
52000;PMS5003;73339;50.924;11.598;2024-03-08T15:54:48;17;14;
52000;PMS5003;73339;50.924;11.598;2024-03-08T15:57:18;16;16;
52000;PMS5003;73339;50.924;11.598;2024-03-08T15:59:49;21;19;
52000;PMS5003;73339;50.924;11.598;2024-03-08T16:02:19;21;20;
52000;PMS5003;73339;50.924;11.598;2024-03-08T16:04:50;20;17;
52000;PMS5003;73339;50.924;11.598;2024-03-08T16:07:21;19;17;
52000;PMS5003;73339;50.924;11.598;2024-03-08T16:09:51;16;16;
52000;PMS5003;73339;50.924;11.598;2024-03-08T16:12:22;16;14;
52000;PMS5003;73339;50.924;11.598;2024-03-08T16:14:52;17;15;
52000;PMS5003;73339;50.924;11.598;2024-03-08T16:17:23;19;19;
52000;PMS5003;73339;50.924;11.598;2024-03-08T16:19:53;19;17;
52000;PMS5003;73339;50.924;11.598;2024-03-08T16:22:24;21;18;
52000;PMS5003;73339;50.924;11.598;2024-03-08T16:24:54;16;16;
52000;PMS5003;73339;50.924;11.598;2024-03-08T16:27:24;19;17;